Time;durP1;ratioP1;P1;durP2;ratioP2;P2;SDS_P1;SDS_P2;PMS_P1;PMS_P2;Temp;Humidity;BMP_temperature;BMP_pressure;BME280_temperature;BME280_humidity;BME280_pressure;Samples;Min_cycle;Max_cycle;Signal;HPM_P1;HPM_P2
2021/04/18 00:01:57;;;;;;;;;;;10.70;66.30;;;;;;4389798;32;32072;-73
2021/04/18 00:04:27;;;;;;;;;;;10.70;66.30;;;;;;4390660;32;36531;-73
2021/04/18 00:06:57;;;;;;;;;;;10.70;66.30;;;;;;4390312;32;20000;-74
2021/04/18 00:09:31;;;;;;;;;;;10.70;66.40;;;;;;4403005;32;20000;-73
2021/04/18 00:12:01;;;;;;;;;;;10.60;66.40;;;;;;4389868;32;43362;-74
2021/04/18 00:14:35;;;;;;;;;;;10.60;66.40;;;;;;4390556;32;20022;-73
2021/04/18 00:17:08;;;;;;;;;;;10.60;66.60;;;;;;4391805;32;20394;-73
2021/04/18 00:19:39;;;;;;;;;;;10.60;66.50;;;;;;4378044;32;20000;-73
2021/04/18 00:22:11;;;;;;;;;;;10.60;66.60;;;;;;4390639;32;20008;-74
2021/04/18 00:24:43;;;;;;;;;;;10.60;66.60;;;;;;4391477;32;20007;-73
2021/04/18 00:27:16;;;;;;;;;;;10.60;66.80;;;;;;4390760;32;43309;-74
2021/04/18 00:29:45;;;;;;;;;;;10.60;66.90;;;;;;4391724;32;20008;-74
2021/04/18 00:32:18;;;;;;;;;;;10.50;66.80;;;;;;4389128;32;36111;-73
2021/04/18 00:34:51;;;;;;;;;;;10.50;66.70;;;;;;4389565;32;35422;-74
2021/04/18 00:37:23;;;;;;;;;;;10.50;66.80;;;;;;4389770;32;29010;-74
2021/04/18 00:39:56;;;;;;;;;;;10.50;66.90;;;;;;4389680;32;22548;-73
2021/04/18 00:42:25;;;;;;;;;;;10.50;67.00;;;;;;4389600;32;33140;-74
2021/04/18 00:44:57;;;;;;;;;;;10.50;67.00;;;;;;4376434;32;45910;-74
2021/04/18 00:47:26;;;;;;;;;;;10.50;67.10;;;;;;4389185;32;39786;-74
2021/04/18 00:50:01;;;;;;;;;;;10.50;67.10;;;;;;4389988;32;20401;-74
2021/04/18 00:52:33;;;;;;;;;;;10.50;67.00;;;;;;4388809;32;41672;-74
2021/04/18 00:55:04;;;;;;;;;;;10.50;67.00;;;;;;4390118;32;44999;-73
2021/04/18 00:57:37;;;;;;;;;;;10.40;67.00;;;;;;4390455;32;20008;-73
2021/04/18 01:00:09;;;;;;;;;;;10.40;67.00;;;;;;4401840;32;43433;-73
2021/04/18 01:02:42;;;;;;;;;;;10.40;67.00;;;;;;4377649;32;20038;-73
2021/04/18 01:05:09;;;;;;;;;;;10.40;67.10;;;;;;4376968;32;30815;-73
2021/04/18 01:07:39;;;;;;;;;;;10.40;67.00;;;;;;4391177;32;20042;-73
2021/04/18 01:10:11;;;;;;;;;;;10.40;67.00;;;;;;4402347;32;20016;-73
2021/04/18 01:12:40;;;;;;;;;;;10.40;67.10;;;;;;4390487;32;20130;-73
2021/04/18 01:15:13;;;;;;;;;;;10.40;67.10;;;;;;4377754;32;20034;-74
2021/04/18 01:17:46;;;;;;;;;;;10.30;67.00;;;;;;4394534;32;20008;-73
2021/04/18 01:20:18;;;;;;;;;;;10.30;67.10;;;;;;4404521;32;40710;-73
2021/04/18 01:22:54;;;;;;;;;;;10.30;67.10;;;;;;4406010;32;20434;-73
2021/04/18 01:25:26;;;;;;;;;;;10.30;67.10;;;;;;4394363;32;20008;-73
2021/04/18 01:27:56;;;;;;;;;;;10.30;67.10;;;;;;4379281;32;45363;-73
2021/04/18 01:30:24;;;;;;;;;;;10.30;67.10;;;;;;4391419;32;41662;-73
2021/04/18 01:32:58;;;;;;;;;;;10.30;67.10;;;;;;4393073;32;20023;-73
2021/04/18 01:35:28;;;;;;;;;;;10.20;67.10;;;;;;4392095;32;29661;-73
2021/04/18 01:38:02;;;;;;;;;;;10.20;67.10;;;;;;4392609;32;20520;-73
2021/04/18 01:40:29;;;;;;;;;;;10.20;67.10;;;;;;4379080;32;43441;-73
2021/04/18 01:43:01;;;;;;;;;;;10.20;67.10;;;;;;4391579;32;44644;-73
2021/04/18 01:45:36;;;;;;;;;;;10.10;67.20;;;;;;4391827;32;31979;-73
2021/04/18 01:48:09;;;;;;;;;;;10.10;67.40;;;;;;4391802;32;44061;-73
2021/04/18 01:50:43;;;;;;;;;;;10.10;67.50;;;;;;4391630;32;43659;-73
2021/04/18 01:53:15;;;;;;;;;;;10.10;67.50;;;;;;4393958;32;20060;-73
2021/04/18 01:55:49;;;;;;;;;;;10.10;67.60;;;;;;4392620;32;20003;-73
2021/04/18 01:58:19;;;;;;;;;;;10.10;67.70;;;;;;4392613;32;20019;-73
2021/04/18 02:00:52;;;;;;;;;;;10.00;68.40;;;;;;4379683;32;20009;-73
2021/04/18 02:03:21;;;;;;;;;;;10.00;67.60;;;;;;4392307;32;37921;-73
2021/04/18 02:05:51;;;;;;;;;;;10.00;67.60;;;;;;4391810;32;28573;-73
2021/04/18 02:08:22;;;;;;;;;;;10.00;67.70;;;;;;4390910;32;42277;-73
2021/04/18 02:10:55;;;;;;;;;;;9.90;67.80;;;;;;4379326;32;20003;-73
2021/04/18 02:13:24;;;;;;;;;;;9.90;68.00;;;;;;4391431;32;42769;-73
2021/04/18 02:15:56;;;;;;;;;;;9.80;68.10;;;;;;4391199;32;34880;-73
2021/04/18 02:18:28;;;;;;;;;;;9.80;68.30;;;;;;4393645;32;20022;-73
2021/04/18 02:21:06;;;;;;;;;;;9.80;68.30;;;;;;4393763;32;20400;-73
2021/04/18 02:23:36;;;;;;;;;;;9.80;68.30;;;;;;4403650;32;38797;-73
2021/04/18 02:26:09;;;;;;;;;;;9.80;68.50;;;;;;4390654;32;39266;-73
2021/04/18 02:28:38;;;;;;;;;;;9.80;68.50;;;;;;4391169;32;44087;-73
2021/04/18 02:31:10;;;;;;;;;;;9.70;68.60;;;;;;4391988;32;20439;-73
2021/04/18 02:33:42;;;;;;;;;;;9.70;68.60;;;;;;4393476;32;20008;-73
2021/04/18 02:36:14;;;;;;;;;;;9.60;68.70;;;;;;4379295;32;20014;-73
2021/04/18 02:38:41;;;;;;;;;;;9.60;68.80;;;;;;4392260;32;44548;-73
2021/04/18 02:41:13;;;;;;;;;;;9.60;68.90;;;;;;4392072;32;20071;-73
2021/04/18 02:43:42;;;;;;;;;;;9.60;69.00;;;;;;4392251;32;35056;-73
2021/04/18 02:46:12;;;;;;;;;;;9.50;68.90;;;;;;4378019;32;45586;-73
2021/04/18 02:48:39;;;;;;;;;;;9.50;69.00;;;;;;4403413;32;37211;-73
2021/04/18 02:51:09;;;;;;;;;;;9.50;69.10;;;;;;4392093;32;35347;-73
2021/04/18 02:53:35;;;;;;;;;;;9.40;69.00;;;;;;4391756;32;38551;-73
2021/04/18 02:56:02;;;;;;;;;;;9.40;69.10;;;;;;4390618;32;44357;-73
2021/04/18 02:58:29;;;;;;;;;;;9.40;69.20;;;;;;4391605;32;19996;-73
2021/04/18 03:00:58;;;;;;;;;;;9.30;69.30;;;;;;4391643;32;44679;-73
2021/04/18 03:03:25;;;;;;;;;;;9.30;69.50;;;;;;4391193;32;42882;-73
2021/04/18 03:05:52;;;;;;;;;;;9.20;69.50;;;;;;4390111;32;44751;-73
2021/04/18 03:08:19;;;;;;;;;;;9.20;69.50;;;;;;4391494;32;44812;-73
2021/04/18 03:10:48;;;;;;;;;;;9.20;69.50;;;;;;4392729;32;20012;-73
2021/04/18 03:13:20;;;;;;;;;;;9.30;69.50;;;;;;4390096;32;45515;-73
2021/04/18 03:15:47;;;;;;;;;;;9.30;69.40;;;;;;4377897;32;39646;-73
2021/04/18 03:18:16;;;;;;;;;;;9.30;69.30;;;;;;4390108;32;43322;-73
2021/04/18 03:20:43;;;;;;;;;;;9.20;69.30;;;;;;4390575;32;20021;-74
2021/04/18 03:23:09;;;;;;;;;;;9.10;69.40;;;;;;4377687;32;43614;-74
2021/04/18 03:25:39;;;;;;;;;;;9.10;69.60;;;;;;4392132;32;20018;-74
2021/04/18 03:28:05;;;;;;;;;;;9.10;69.60;;;;;;4377433;32;45925;-75
2021/04/18 03:30:33;;;;;;;;;;;9.00;69.60;;;;;;4389676;32;44173;-74
2021/04/18 03:33:02;;;;;;;;;;;9.10;69.70;;;;;;4391943;32;20016;-74
2021/04/18 03:35:31;;;;;;;;;;;9.10;69.60;;;;;;4390250;32;37611;-74
2021/04/18 03:38:02;;;;;;;;;;;9.10;69.60;;;;;;4390772;32;35394;-74
2021/04/18 03:40:30;;;;;;;;;;;9.10;69.60;;;;;;4389472;32;42940;-74
2021/04/18 03:42:56;;;;;;;;;;;9.10;69.60;;;;;;4390014;32;42962;-74
2021/04/18 03:45:23;;;;;;;;;;;9.00;69.70;;;;;;4377650;32;38684;-74
2021/04/18 03:47:52;;;;;;;;;;;8.90;69.80;;;;;;4391173;32;20063;-74
2021/04/18 03:50:19;;;;;;;;;;;8.90;70.00;;;;;;4391101;32;33905;-74
2021/04/18 03:52:54;;;;;;;;;;;8.90;70.10;;;;;;4389768;32;42976;-75
2021/04/18 03:55:21;;;;;;;;;;;8.80;70.10;;;;;;4389752;32;43670;-75
2021/04/18 03:57:48;;;;;;;;;;;8.80;70.20;;;;;;4389713;32;35860;-74
2021/04/18 04:00:18;;;;;;;;;;;8.80;70.30;;;;;;4390230;32;20001;-74
2021/04/18 04:02:47;;;;;;;;;;;8.80;70.30;;;;;;4389312;32;32521;-74
2021/04/18 04:05:17;;;;;;;;;;;8.80;70.30;;;;;;4389649;32;43119;-74
2021/04/18 04:07:44;;;;;;;;;;;8.70;70.20;;;;;;4390334;32;20036;-74
2021/04/18 04:10:13;;;;;;;;;;;8.70;70.20;;;;;;4391950;32;20008;-74
2021/04/18 04:12:39;;;;;;;;;;;8.70;70.30;;;;;;4391582;32;20008;-74
2021/04/18 04:15:09;;;;;;;;;;;8.70;70.30;;;;;;4390107;32;32881;-74
2021/04/18 04:17:36;;;;;;;;;;;8.70;70.20;;;;;;4376656;32;45402;-74
2021/04/18 04:20:03;;;;;;;;;;;8.80;70.30;;;;;;4391548;32;20047;-74
2021/04/18 04:22:33;;;;;;;;;;;8.70;70.20;;;;;;4390725;32;36902;-74
2021/04/18 04:25:00;;;;;;;;;;;8.70;70.20;;;;;;4389195;32;41920;-74
2021/04/18 04:27:27;;;;;;;;;;;8.70;70.30;;;;;;4389335;32;28960;-74
2021/04/18 04:29:56;;;;;;;;;;;8.70;70.20;;;;;;4389572;32;39510;-74
2021/04/18 04:32:23;;;;;;;;;;;8.70;70.40;;;;;;4389319;32;41503;-75
2021/04/18 04:34:50;;;;;;;;;;;8.60;70.50;;;;;;4388726;32;45151;-74
2021/04/18 04:37:17;;;;;;;;;;;8.60;70.50;;;;;;4390405;32;41811;-74
2021/04/18 04:39:43;;;;;;;;;;;8.50;70.70;;;;;;4389864;32;43471;-74
2021/04/18 04:42:10;;;;;;;;;;;8.60;71.00;;;;;;4390541;32;20311;-74
2021/04/18 04:44:36;;;;;;;;;;;8.50;70.90;;;;;;4402937;32;20030;-75
2021/04/18 04:47:03;;;;;;;;;;;8.60;71.10;;;;;;4391098;32;20030;-74
2021/04/18 04:49:36;;;;;;;;;;;8.60;71.20;;;;;;4389760;32;20026;-74
2021/04/18 04:52:07;;;;;;;;;;;8.60;71.10;;;;;;4390578;32;43376;-74
2021/04/18 04:54:34;;;;;;;;;;;8.60;71.10;;;;;;4390453;32;20026;-74
2021/04/18 04:57:00;;;;;;;;;;;8.60;71.00;;;;;;4391565;32;20064;-74
2021/04/18 04:59:28;;;;;;;;;;;8.60;70.90;;;;;;4402800;32;20039;-74
2021/04/18 05:01:57;;;;;;;;;;;8.60;71.00;;;;;;4390325;32;20008;-74
2021/04/18 05:04:26;;;;;;;;;;;8.60;71.10;;;;;;4390526;32;32698;-74
2021/04/18 05:06:56;;;;;;;;;;;8.50;71.20;;;;;;4389841;32;43310;-74
2021/04/18 05:09:22;;;;;;;;;;;8.50;71.30;;;;;;4389010;32;28235;-74
2021/04/18 05:11:54;;;;;;;;;;;8.50;72.20;;;;;;4377167;32;20067;-74
2021/04/18 05:14:24;;;;;;;;;;;8.50;71.50;;;;;;4390092;32;44711;-75
2021/04/18 05:16:56;;;;;;;;;;;8.50;71.60;;;;;;4390736;32;20008;-74
2021/04/18 05:19:23;;;;;;;;;;;8.50;71.70;;;;;;4389873;32;32369;-75
2021/04/18 05:21:52;;;;;;;;;;;8.40;71.80;;;;;;4389998;32;20010;-74
2021/04/18 05:24:27;;;;;;;;;;;8.50;71.80;;;;;;4377617;32;20068;-75
2021/04/18 05:26:59;;;;;;;;;;;8.50;72.00;;;;;;4390114;32;20023;-75
2021/04/18 05:29:26;;;;;;;;;;;8.40;72.00;;;;;;4388725;32;43761;-74
2021/04/18 05:31:55;;;;;;;;;;;8.50;72.10;;;;;;4389905;32;44146;-75
2021/04/18 05:34:25;;;;;;;;;;;8.50;72.00;;;;;;4388460;32;39797;-74
2021/04/18 05:36:51;;;;;;;;;;;8.50;72.10;;;;;;4390655;32;20026;-75
2021/04/18 05:39:18;;;;;;;;;;;8.50;72.10;;;;;;4389974;32;20056;-75
2021/04/18 05:41:51;;;;;;;;;;;8.50;72.10;;;;;;4377170;32;20008;-74
2021/04/18 05:44:21;;;;;;;;;;;8.50;72.20;;;;;;4391195;32;20063;-74
2021/04/18 05:46:53;;;;;;;;;;;8.50;72.30;;;;;;4376340;32;44630;-74
2021/04/18 05:49:29;;;;;;;;;;;8.50;72.40;;;;;;4390180;32;20012;-74
2021/04/18 05:52:02;;;;;;;;;;;8.40;72.30;;;;;;4390303;32;27755;-74
2021/04/18 05:54:31;;;;;;;;;;;8.50;72.40;;;;;;4391149;32;20071;-74
2021/04/18 05:57:06;;;;;;;;;;;8.50;72.40;;;;;;4391027;32;20000;-74
2021/04/18 05:59:44;;;;;;;;;;;8.40;72.50;;;;;;4377367;32;20002;-74
2021/04/18 06:02:11;;;;;;;;;;;8.50;72.70;;;;;;4389711;32;40311;-75
2021/04/18 06:04:39;;;;;;;;;;;8.50;72.80;;;;;;4391510;32;32787;-75
2021/04/18 06:07:10;;;;;;;;;;;8.50;72.80;;;;;;4392227;32;40099;-74
2021/04/18 06:09:39;;;;;;;;;;;8.50;72.90;;;;;;4392432;32;42295;-74
2021/04/18 06:12:09;;;;;;;;;;;8.50;73.00;;;;;;4392561;32;40330;-74
2021/04/18 06:14:41;;;;;;;;;;;8.50;73.10;;;;;;4392169;32;20015;-74
2021/04/18 06:17:14;;;;;;;;;;;8.50;73.20;;;;;;4391475;32;33422;-74
2021/04/18 06:19:43;;;;;;;;;;;8.50;73.30;;;;;;4378566;32;44287;-74
2021/04/18 06:22:16;;;;;;;;;;;8.50;73.30;;;;;;4392508;32;44146;-74
2021/04/18 06:24:42;;;;;;;;;;;8.50;73.40;;;;;;4390660;32;42409;-74
2021/04/18 06:27:14;;;;;;;;;;;8.50;73.60;;;;;;4378792;32;44750;-74
2021/04/18 06:29:41;;;;;;;;;;;8.50;73.60;;;;;;4390709;32;36485;-74
2021/04/18 06:32:12;;;;;;;;;;;8.50;73.70;;;;;;4393375;32;20009;-74
2021/04/18 06:34:49;;;;;;;;;;;8.50;73.80;;;;;;4391914;32;43333;-74
2021/04/18 06:37:18;;;;;;;;;;;8.50;73.90;;;;;;4391922;32;44338;-74
2021/04/18 06:39:52;;;;;;;;;;;8.50;74.00;;;;;;4393025;32;20364;-74
2021/04/18 06:42:22;;;;;;;;;;;8.50;74.10;;;;;;4391204;32;35526;-74
2021/04/18 06:44:52;;;;;;;;;;;8.50;74.20;;;;;;4392612;32;20088;-74
2021/04/18 06:47:24;;;;;;;;;;;8.50;74.30;;;;;;4391652;32;20486;-74
2021/04/18 06:49:59;;;;;;;;;;;8.50;74.50;;;;;;4393044;32;20025;-74
2021/04/18 06:52:31;;;;;;;;;;;8.50;74.50;;;;;;4391888;32;33220;-74
2021/04/18 06:55:01;;;;;;;;;;;8.50;74.90;;;;;;4391394;32;44055;-74
2021/04/18 06:57:33;;;;;;;;;;;8.50;75.00;;;;;;4393160;32;20060;-74
2021/04/18 07:00:00;;;;;;;;;;;8.50;75.20;;;;;;4392899;32;20012;-75
2021/04/18 07:02:36;;;;;;;;;;;8.50;75.30;;;;;;4392611;32;20004;-74
2021/04/18 07:05:10;;;;;;;;;;;8.50;75.60;;;;;;4391558;32;44708;-75
2021/04/18 07:07:41;;;;;;;;;;;8.50;75.60;;;;;;4390652;32;25918;-74
2021/04/18 07:10:24;;;;;;;;;;;8.60;75.70;;;;;;4391614;32;20016;-74
2021/04/18 07:13:06;;;;;;;;;;;8.50;75.60;;;;;;4392892;32;20022;-74
2021/04/18 07:15:40;;;;;;;;;;;8.60;75.50;;;;;;4392832;32;20064;-74
2021/04/18 07:18:12;;;;;;;;;;;8.60;75.50;;;;;;4392659;32;20003;-74
2021/04/18 07:20:54;;;;;;;;;;;8.60;75.60;;;;;;4391033;32;20099;-74
2021/04/18 07:23:35;;;;;;;;;;;8.60;75.60;;;;;;4392776;32;20048;-74
2021/04/18 07:26:17;;;;;;;;;;;8.60;75.50;;;;;;4378064;32;35542;-74
2021/04/18 07:28:55;;;;;;;;;;;8.60;75.60;;;;;;4391954;32;20004;-74
2021/04/18 07:31:34;;;;;;;;;;;8.60;75.70;;;;;;4391466;32;20000;-74
2021/04/18 07:34:10;;;;;;;;;;;8.70;76.10;;;;;;4392588;32;20445;-74
2021/04/18 07:36:38;;;;;;;;;;;8.60;76.10;;;;;;4390312;32;29576;-74
2021/04/18 07:39:10;;;;;;;;;;;8.70;76.40;;;;;;4392110;32;20059;-74
2021/04/18 07:41:45;;;;;;;;;;;8.70;76.30;;;;;;4390582;32;26603;-74
2021/04/18 07:44:18;;;;;;;;;;;8.70;76.60;;;;;;4392388;32;20018;-74
2021/04/18 07:46:48;;;;;;;;;;;8.70;76.60;;;;;;4403733;32;20015;-74
2021/04/18 07:49:16;;;;;;;;;;;8.70;76.70;;;;;;4389370;32;43312;-74
2021/04/18 07:51:44;;;;;;;;;;;8.70;76.80;;;;;;4392215;32;20479;-74
2021/04/18 07:54:11;;;;;;;;;;;8.80;77.10;;;;;;4390917;32;20010;-74
2021/04/18 07:56:42;;;;;;;;;;;8.70;76.90;;;;;;4391617;32;20401;-74
2021/04/18 07:59:10;;;;;;;;;;;8.80;76.80;;;;;;4390862;32;20063;-74
2021/04/18 08:01:39;;;;;;;;;;;8.80;76.70;;;;;;4391017;32;20063;-74
2021/04/18 08:04:06;;;;;;;;;;;8.80;76.60;;;;;;4391575;32;20055;-74
2021/04/18 08:06:33;;;;;;;;;;;8.80;76.90;;;;;;4391581;32;20052;-74
2021/04/18 08:09:14;;;;;;;;;;;8.80;76.80;;;;;;4391510;32;20005;-74
2021/04/18 08:11:43;;;;;;;;;;;8.80;76.70;;;;;;4392053;32;20067;-74
2021/04/18 08:14:15;;;;;;;;;;;8.80;76.60;;;;;;4403295;32;20060;-74
2021/04/18 08:16:42;;;;;;;;;;;8.90;76.70;;;;;;4390832;32;19992;-74
2021/04/18 08:19:15;;;;;;;;;;;8.80;76.60;;;;;;4390511;32;20059;-74
2021/04/18 08:21:51;;;;;;;;;;;8.90;76.70;;;;;;4390599;32;20022;-74
2021/04/18 08:24:20;;;;;;;;;;;8.90;76.70;;;;;;4377866;32;20010;-74
2021/04/18 08:27:06;;;;;;;;;;;8.90;76.70;;;;;;4391999;32;20056;-74
2021/04/18 08:29:56;;;;;;;;;;;8.90;76.70;;;;;;4391397;32;20016;-74
2021/04/18 08:32:41;;;;;;;;;;;9.00;76.80;;;;;;4390475;32;20007;-74
2021/04/18 08:35:29;;;;;;;;;;;9.00;76.70;;;;;;4390067;32;38530;-74
2021/04/18 08:38:11;;;;;;;;;;;9.00;76.80;;;;;;4389858;32;23449;-74
2021/04/18 08:40:38;;;;;;;;;;;9.00;76.90;;;;;;4388860;32;44330;-74
2021/04/18 08:43:18;;;;;;;;;;;9.00;76.70;;;;;;4389869;32;43373;-74
2021/04/18 08:45:46;;;;;;;;;;;9.00;76.60;;;;;;4377466;32;20000;-74
2021/04/18 08:48:13;;;;;;;;;;;9.00;76.50;;;;;;4390764;32;20008;-74
2021/04/18 08:50:56;;;;;;;;;;;9.00;76.60;;;;;;4390286;32;20427;-74
2021/04/18 08:53:26;;;;;;;;;;;9.10;76.60;;;;;;4390241;32;20004;-74
2021/04/18 08:55:57;;;;;;;;;;;9.10;76.50;;;;;;4388577;32;43655;-74
2021/04/18 08:58:33;;;;;;;;;;;9.10;76.40;;;;;;4389624;32;43540;-74
2021/04/18 09:01:06;;;;;;;;;;;9.10;76.50;;;;;;4391354;32;20075;-75
2021/04/18 09:03:34;;;;;;;;;;;9.10;76.40;;;;;;4391128;32;20008;-74
2021/04/18 09:06:09;;;;;;;;;;;9.20;76.50;;;;;;4377848;32;20011;-74
2021/04/18 09:08:49;;;;;;;;;;;9.10;76.40;;;;;;4403125;32;20015;-74
2021/04/18 09:11:18;;;;;;;;;;;9.20;76.50;;;;;;4389982;32;20017;-75
2021/04/18 09:14:11;;;;;;;;;;;9.20;76.40;;;;;;4390967;32;20018;-74
2021/04/18 09:16:38;;;;;;;;;;;9.20;76.40;;;;;;4386661;32;43273;-74
2021/04/18 09:19:23;;;;;;;;;;;9.20;76.50;;;;;;4401041;32;44163;-74
2021/04/18 09:21:53;;;;;;;;;;;9.20;76.20;;;;;;4390179;32;20072;-74
2021/04/18 09:24:20;;;;;;;;;;;9.20;76.30;;;;;;4390009;32;20123;-74
2021/04/18 09:26:57;;;;;;;;;;;9.30;76.40;;;;;;4389979;32;19997;-74
2021/04/18 09:29:28;;;;;;;;;;;9.20;76.20;;;;;;4391134;32;20023;-74
2021/04/18 09:31:59;;;;;;;;;;;9.30;76.10;;;;;;4391349;32;20014;-75
2021/04/18 09:34:26;;;;;;;;;;;9.30;75.90;;;;;;4377458;32;20397;-74
2021/04/18 09:36:54;;;;;;;;;;;9.30;75.90;;;;;;4390747;32;20025;-74
2021/04/18 09:39:24;;;;;;;;;;;9.30;76.00;;;;;;4394127;32;20060;-74
2021/04/18 09:41:53;;;;;;;;;;;9.30;75.90;;;;;;4392957;32;20009;-74
2021/04/18 09:44:39;;;;;;;;;;;9.30;75.80;;;;;;4393675;32;20060;-74
2021/04/18 09:47:08;;;;;;;;;;;9.30;75.80;;;;;;4393493;32;20018;-74
2021/04/18 09:49:52;;;;;;;;;;;9.30;75.80;;;;;;4393480;32;20060;-75
2021/04/18 09:52:25;;;;;;;;;;;9.40;75.90;;;;;;4393850;32;20083;-74
2021/04/18 09:54:52;;;;;;;;;;;9.40;76.20;;;;;;4393651;32;20109;-74
2021/04/18 09:57:24;;;;;;;;;;;9.40;75.50;;;;;;4392274;32;20008;-74
2021/04/18 10:00:15;;;;;;;;;;;9.40;75.50;;;;;;4393376;32;20051;-74
2021/04/18 10:02:56;;;;;;;;;;;9.40;75.50;;;;;;4379890;32;20009;-74
2021/04/18 10:05:23;;;;;;;;;;;9.40;75.30;;;;;;4392808;32;20008;-74
2021/04/18 10:08:12;;;;;;;;;;;9.50;75.20;;;;;;4404538;32;20005;-74
2021/04/18 10:10:49;;;;;;;;;;;9.50;75.20;;;;;;4384065;32;20063;-74
2021/04/18 10:13:36;;;;;;;;;;;9.50;75.00;;;;;;4392620;32;20071;-74
2021/04/18 10:16:23;;;;;;;;;;;9.50;75.00;;;;;;4393401;32;20436;-74
2021/04/18 10:19:11;;;;;;;;;;;9.50;75.00;;;;;;4393448;32;20053;-74
2021/04/18 10:21:46;;;;;;;;;;;9.60;75.00;;;;;;4393406;32;20047;-74
2021/04/18 10:24:32;;;;;;;;;;;9.60;75.00;;;;;;4392534;32;20005;-74
2021/04/18 10:27:10;;;;;;;;;;;9.60;74.80;;;;;;4393181;32;20012;-74
2021/04/18 10:29:37;;;;;;;;;;;9.60;74.70;;;;;;4379829;32;20008;-74
2021/04/18 10:32:07;;;;;;;;;;;9.60;74.70;;;;;;4393358;32;20397;-74
2021/04/18 10:34:45;;;;;;;;;;;9.70;74.70;;;;;;4391805;32;20001;-74
2021/04/18 10:37:14;;;;;;;;;;;9.70;74.70;;;;;;4393175;32;20047;-75
2021/04/18 10:39:49;;;;;;;;;;;9.70;74.50;;;;;;4392138;32;20012;-75
2021/04/18 10:42:21;;;;;;;;;;;9.70;74.40;;;;;;4393346;32;20059;-75
2021/04/18 10:44:53;;;;;;;;;;;9.70;74.40;;;;;;4393519;32;20498;-75
2021/04/18 10:47:20;;;;;;;;;;;9.80;74.40;;;;;;4391922;32;20190;-74
2021/04/18 10:49:50;;;;;;;;;;;9.80;74.40;;;;;;4392252;32;31685;-74
2021/04/18 10:52:17;;;;;;;;;;;9.80;74.20;;;;;;4392668;32;20026;-74
2021/04/18 10:54:43;;;;;;;;;;;9.80;75.00;;;;;;4393143;32;20398;-74
2021/04/18 10:57:12;;;;;;;;;;;9.90;74.30;;;;;;4391837;32;20129;-74
2021/04/18 10:59:39;;;;;;;;;;;9.90;74.30;;;;;;4390369;32;39596;-74
2021/04/18 11:02:09;;;;;;;;;;;9.90;74.30;;;;;;4391025;32;20023;-74
2021/04/18 11:04:35;;;;;;;;;;;9.90;74.30;;;;;;4403307;32;30292;-74
2021/04/18 11:07:03;;;;;;;;;;;9.90;74.30;;;;;;4391125;32;44034;-75
2021/04/18 11:09:30;;;;;;;;;;;10.00;74.40;;;;;;4391489;32;42577;-74
2021/04/18 11:11:56;;;;;;;;;;;10.00;74.30;;;;;;4391993;32;43363;-74
2021/04/18 11:14:23;;;;;;;;;;;10.10;74.30;;;;;;4402707;32;40553;-74
2021/04/18 11:16:50;;;;;;;;;;;10.10;74.20;;;;;;4391665;32;43250;-74
2021/04/18 11:19:17;;;;;;;;;;;10.10;74.80;;;;;;4389855;32;44080;-74
2021/04/18 11:21:43;;;;;;;;;;;10.20;74.00;;;;;;4377377;32;43394;-74
2021/04/18 11:24:10;;;;;;;;;;;10.20;73.90;;;;;;4390179;32;42591;-74
2021/04/18 11:26:37;;;;;;;;;;;10.20;73.80;;;;;;4391747;32;20060;-74
2021/04/18 11:29:04;;;;;;;;;;;10.20;73.90;;;;;;4390355;32;27373;-74
2021/04/18 11:31:31;;;;;;;;;;;10.30;73.90;;;;;;4391342;32;20056;-74
2021/04/18 11:33:57;;;;;;;;;;;10.30;74.00;;;;;;4392515;32;20042;-74
2021/04/18 11:36:24;;;;;;;;;;;10.30;74.00;;;;;;4390025;32;30400;-74
2021/04/18 11:38:58;;;;;;;;;;;10.30;74.00;;;;;;4390480;32;38030;-74
2021/04/18 11:41:33;;;;;;;;;;;10.30;74.00;;;;;;4389937;32;43663;-74
2021/04/18 11:44:02;;;;;;;;;;;10.40;74.10;;;;;;4390844;32;43364;-74
2021/04/18 11:46:31;;;;;;;;;;;10.40;74.20;;;;;;4391051;32;45034;-74
2021/04/18 11:49:01;;;;;;;;;;;10.50;74.20;;;;;;4389570;32;38937;-74
2021/04/18 11:51:28;;;;;;;;;;;10.50;74.10;;;;;;4390830;32;32357;-74
2021/04/18 11:53:57;;;;;;;;;;;10.60;74.10;;;;;;4390340;32;35711;-74
2021/04/18 11:56:24;;;;;;;;;;;10.60;74.00;;;;;;4392039;32;20059;-74
2021/04/18 11:58:51;;;;;;;;;;;10.70;74.00;;;;;;4389678;32;29084;-74
2021/04/18 12:01:17;;;;;;;;;;;10.70;73.80;;;;;;4390751;32;41369;-74
2021/04/18 12:03:44;;;;;;;;;;;10.70;73.80;;;;;;4376652;32;44389;-74
2021/04/18 12:06:13;;;;;;;;;;;10.80;73.80;;;;;;4390770;32;25400;-74
2021/04/18 12:08:42;;;;;;;;;;;10.80;73.80;;;;;;4390399;32;20093;-74
2021/04/18 12:11:15;;;;;;;;;;;10.80;73.70;;;;;;4392054;32;20122;-74
2021/04/18 12:13:46;;;;;;;;;;;10.90;73.60;;;;;;4390780;32;20322;-74
2021/04/18 12:16:16;;;;;;;;;;;10.90;73.70;;;;;;4389685;32;38718;-74
2021/04/18 12:18:43;;;;;;;;;;;10.90;73.70;;;;;;4376641;32;46152;-74
2021/04/18 12:21:13;;;;;;;;;;;10.90;73.60;;;;;;4391886;32;20126;-75
2021/04/18 12:23:42;;;;;;;;;;;11.00;73.70;;;;;;4391440;32;20079;-74
2021/04/18 12:26:13;;;;;;;;;;;11.00;73.70;;;;;;4390618;32;33862;-73
2021/04/18 12:28:45;;;;;;;;;;;11.00;73.70;;;;;;4391300;32;20525;-74
2021/04/18 12:31:17;;;;;;;;;;;11.00;73.70;;;;;;4389513;32;41269;-74
2021/04/18 12:33:47;;;;;;;;;;;11.10;73.60;;;;;;4389694;32;35533;-74
2021/04/18 12:36:16;;;;;;;;;;;11.10;73.60;;;;;;4390108;32;20013;-74
2021/04/18 12:38:43;;;;;;;;;;;11.20;73.50;;;;;;4388953;32;44597;-74
2021/04/18 12:41:13;;;;;;;;;;;11.20;73.40;;;;;;4391384;32;20071;-75
2021/04/18 12:43:42;;;;;;;;;;;11.20;73.30;;;;;;4389955;32;38532;-75
2021/04/18 12:46:13;;;;;;;;;;;11.20;73.40;;;;;;4389267;32;43019;-75
2021/04/18 12:48:46;;;;;;;;;;;11.20;73.40;;;;;;4389700;32;20075;-74
2021/04/18 12:51:14;;;;;;;;;;;11.30;73.60;;;;;;4391596;32;20453;-74
2021/04/18 12:53:46;;;;;;;;;;;11.30;73.60;;;;;;4388941;32;44749;-75
2021/04/18 12:56:16;;;;;;;;;;;11.30;73.60;;;;;;4376465;32;43940;-75
2021/04/18 12:58:48;;;;;;;;;;;11.40;73.70;;;;;;4388623;32;44526;-74
2021/04/18 13:01:17;;;;;;;;;;;11.40;73.20;;;;;;4390623;32;43227;-74
2021/04/18 13:03:47;;;;;;;;;;;11.50;73.20;;;;;;4401105;32;43674;-75
2021/04/18 13:06:19;;;;;;;;;;;11.50;73.30;;;;;;4391170;32;20004;-74
2021/04/18 13:08:51;;;;;;;;;;;11.60;73.10;;;;;;4391502;32;20439;-74
2021/04/18 13:11:20;;;;;;;;;;;11.60;72.90;;;;;;4391641;32;20012;-74
2021/04/18 13:13:53;;;;;;;;;;;11.60;72.80;;;;;;4391715;32;43457;-75
2021/04/18 13:16:24;;;;;;;;;;;11.60;72.60;;;;;;4393164;32;41379;-75
2021/04/18 13:18:53;;;;;;;;;;;11.70;72.70;;;;;;4393033;32;37762;-75
2021/04/18 13:21:23;;;;;;;;;;;11.70;72.80;;;;;;4380105;32;20476;-75
2021/04/18 13:23:55;;;;;;;;;;;11.70;72.70;;;;;;4394376;32;20314;-74
2021/04/18 13:26:28;;;;;;;;;;;11.70;72.60;;;;;;4405638;32;20011;-75
2021/04/18 13:28:54;;;;;;;;;;;11.70;72.80;;;;;;4393252;32;44130;-75
2021/04/18 13:31:23;;;;;;;;;;;11.70;72.90;;;;;;4393089;32;20004;-74
2021/04/18 13:33:53;;;;;;;;;;;11.70;73.00;;;;;;4392914;32;43287;-74
2021/04/18 13:36:28;;;;;;;;;;;11.70;73.00;;;;;;4393114;32;20047;-75
2021/04/18 13:38:58;;;;;;;;;;;11.80;73.10;;;;;;4393008;32;20000;-75
2021/04/18 13:41:32;;;;;;;;;;;11.90;73.00;;;;;;4394274;32;20060;-75
2021/04/18 13:44:07;;;;;;;;;;;11.90;73.10;;;;;;4392406;32;20006;-75
2021/04/18 13:46:39;;;;;;;;;;;11.90;73.00;;;;;;4393003;32;20014;-75
2021/04/18 13:49:12;;;;;;;;;;;12.00;73.00;;;;;;4392921;32;19993;-75
2021/04/18 13:51:42;;;;;;;;;;;12.00;73.00;;;;;;4394091;32;20060;-75
2021/04/18 13:54:14;;;;;;;;;;;12.10;73.00;;;;;;4405065;32;20008;-75
2021/04/18 13:56:46;;;;;;;;;;;12.10;72.70;;;;;;4392896;32;20060;-74
2021/04/18 13:59:18;;;;;;;;;;;12.20;72.60;;;;;;4391276;32;41204;-74
2021/04/18 14:01:48;;;;;;;;;;;12.20;72.40;;;;;;4392970;32;21885;-73
2021/04/18 14:04:17;;;;;;;;;;;12.20;72.40;;;;;;4392062;32;44033;-73
2021/04/18 14:06:47;;;;;;;;;;;12.30;72.50;;;;;;4392778;32;31159;-73
2021/04/18 14:09:19;;;;;;;;;;;12.30;72.50;;;;;;4393246;32;20018;-74
2021/04/18 14:11:49;;;;;;;;;;;12.40;73.30;;;;;;4393546;32;20064;-74
2021/04/18 14:14:18;;;;;;;;;;;12.40;72.50;;;;;;4391404;32;37912;-74
2021/04/18 14:16:48;;;;;;;;;;;12.40;72.30;;;;;;4390959;32;39438;-74
2021/04/18 14:19:18;;;;;;;;;;;12.50;72.00;;;;;;4404636;32;19993;-74
2021/04/18 14:21:50;;;;;;;;;;;12.50;71.80;;;;;;4391776;32;19997;-74
2021/04/18 14:24:20;;;;;;;;;;;12.50;71.30;;;;;;4392392;32;23460;-74
2021/04/18 14:26:52;;;;;;;;;;;12.50;71.10;;;;;;4393215;32;20022;-74
2021/04/18 14:29:22;;;;;;;;;;;12.60;71.20;;;;;;4378750;32;42420;-74
2021/04/18 14:31:52;;;;;;;;;;;12.60;71.20;;;;;;4391172;32;40331;-74
2021/04/18 14:34:27;;;;;;;;;;;12.60;70.60;;;;;;4379904;32;19996;-73
2021/04/18 14:36:53;;;;;;;;;;;12.60;70.50;;;;;;4393341;32;20012;-74
2021/04/18 14:39:28;;;;;;;;;;;12.60;70.40;;;;;;4393236;32;20402;-74
2021/04/18 14:41:55;;;;;;;;;;;12.70;70.30;;;;;;4391208;32;44469;-74
2021/04/18 14:44:22;;;;;;;;;;;12.70;70.10;;;;;;4393006;32;20016;-74
2021/04/18 14:46:52;;;;;;;;;;;12.70;70.10;;;;;;4392884;32;20022;-74